createdAt,value
2023-03-03T00:01:58.389Z,26.60
2023-03-03T00:04:26.896Z,26.60
2023-03-03T00:06:57.888Z,26.60
2023-03-03T00:09:28.770Z,26.60
2023-03-03T00:12:01.435Z,26.60
2023-03-03T00:14:32.934Z,26.60
2023-03-03T00:17:17.715Z,26.60
2023-03-03T00:19:46.774Z,26.60
2023-03-03T00:22:29.476Z,26.60
2023-03-03T00:25:16.981Z,26.60
2023-03-03T00:27:46.734Z,26.60
2023-03-03T00:30:28.278Z,26.60
2023-03-03T00:32:58.822Z,26.60
2023-03-03T00:35:30.717Z,26.70
2023-03-03T00:38:02.577Z,26.60
2023-03-03T00:40:37.594Z,26.60
2023-03-03T00:43:35.628Z,26.60
2023-03-03T00:46:06.069Z,26.70
2023-03-03T00:48:37.465Z,26.60
2023-03-03T00:51:38.360Z,26.60
2023-03-03T00:54:06.106Z,26.70
2023-03-03T00:56:34.414Z,26.70
2023-03-03T00:59:01.367Z,26.70
2023-03-03T01:01:29.741Z,26.70
2023-03-03T01:03:58.717Z,26.60
2023-03-03T01:06:27.297Z,26.60
2023-03-03T01:08:58.187Z,26.70
2023-03-03T01:11:30.261Z,26.70
2023-03-03T01:14:02.229Z,26.70
2023-03-03T01:16:29.906Z,26.70
2023-03-03T01:18:57.815Z,26.70
2023-03-03T01:21:28.234Z,26.70
2023-03-03T01:23:56.081Z,26.70
2023-03-03T01:26:24.949Z,26.70
2023-03-03T01:28:56.116Z,26.70
2023-03-03T01:31:24.832Z,26.70
2023-03-03T01:33:54.295Z,26.70
2023-03-03T01:36:30.904Z,26.70
2023-03-03T01:38:59.602Z,26.80
2023-03-03T01:41:34.459Z,26.70
2023-03-03T01:44:03.324Z,26.70
2023-03-03T01:47:05.705Z,26.70
2023-03-03T01:50:07.673Z,26.70
2023-03-03T01:52:47.927Z,26.70
2023-03-03T01:55:22.028Z,26.70
2023-03-03T01:58:06.097Z,26.70
2023-03-03T02:00:38.384Z,26.70
2023-03-03T02:03:06.980Z,26.70
2023-03-03T02:05:40.960Z,26.70
2023-03-03T02:08:12.703Z,26.70
2023-03-03T02:10:42.650Z,26.70
2023-03-03T02:13:11.885Z,26.70
2023-03-03T02:15:39.797Z,26.70
2023-03-03T02:18:19.028Z,26.70
2023-03-03T02:21:05.647Z,26.70
2023-03-03T02:23:59.367Z,26.70
2023-03-03T02:26:31.036Z,26.70
2023-03-03T02:29:01.461Z,26.70
2023-03-03T02:31:32.941Z,26.70
2023-03-03T02:34:02.424Z,26.70
2023-03-03T02:36:31.918Z,26.70
2023-03-03T02:39:20.844Z,26.70
2023-03-03T02:42:14.712Z,26.70
2023-03-03T02:44:44.542Z,26.70
2023-03-03T02:47:12.024Z,26.70
2023-03-03T02:49:41.558Z,26.70
2023-03-03T02:52:15.521Z,26.70
2023-03-03T02:54:43.279Z,26.70
2023-03-03T02:57:11.760Z,26.70
2023-03-03T02:59:43.015Z,26.70
2023-03-03T03:02:11.987Z,26.70
2023-03-03T03:04:40.880Z,26.70
2023-03-03T03:07:08.874Z,26.70
2023-03-03T03:09:36.312Z,26.70
2023-03-03T03:12:05.852Z,26.70
2023-03-03T03:14:34.611Z,26.70
2023-03-03T03:17:02.654Z,26.70
2023-03-03T03:19:29.797Z,26.70
2023-03-03T03:21:58.069Z,26.70
2023-03-03T03:24:29.489Z,26.70
2023-03-03T03:26:59.376Z,26.70
2023-03-03T03:29:26.076Z,26.70
2023-03-03T03:31:53.959Z,26.70
2023-03-03T03:34:26.203Z,26.70
2023-03-03T03:36:53.563Z,26.70
2023-03-03T03:39:21.380Z,26.70
2023-03-03T03:41:51.972Z,26.80
2023-03-03T03:44:19.773Z,26.70
2023-03-03T03:46:50.060Z,26.70
2023-03-03T03:49:22.272Z,26.70
2023-03-03T03:51:50.737Z,26.70
2023-03-03T03:54:18.600Z,26.70
2023-03-03T03:56:46.588Z,26.70
2023-03-03T03:59:14.755Z,26.70
2023-03-03T04:01:44.859Z,26.70
2023-03-03T04:04:14.593Z,26.70
2023-03-03T04:06:43.122Z,26.70
2023-03-03T04:09:11.898Z,26.70
2023-03-03T04:11:39.416Z,26.70
2023-03-03T04:14:07.504Z,26.80
2023-03-03T04:16:36.993Z,26.80
2023-03-03T04:19:04.210Z,26.80
2023-03-03T04:21:31.456Z,26.80
2023-03-03T04:24:01.013Z,26.80
2023-03-03T04:26:31.472Z,26.80
2023-03-03T04:29:01.952Z,26.70
2023-03-03T04:31:31.628Z,26.70
2023-03-03T04:33:58.143Z,26.70
2023-03-03T04:36:28.394Z,26.70
2023-03-03T04:38:57.185Z,26.70
2023-03-03T04:41:25.600Z,26.80
2023-03-03T04:43:53.549Z,27.20
2023-03-03T04:46:20.562Z,26.70
2023-03-03T04:48:48.512Z,26.70
2023-03-03T04:51:18.027Z,26.70
2023-03-03T04:53:47.144Z,26.70
2023-03-03T04:56:15.430Z,26.70
2023-03-03T04:58:42.481Z,26.60
2023-03-03T05:01:14.273Z,26.70
2023-03-03T05:03:42.576Z,26.70
2023-03-03T05:06:09.686Z,26.70
2023-03-03T05:08:39.008Z,26.70
2023-03-03T05:11:07.183Z,26.70
2023-03-03T05:13:33.621Z,26.70
2023-03-03T05:16:00.914Z,26.70
2023-03-03T05:18:29.507Z,26.70
2023-03-03T05:20:56.239Z,26.80
2023-03-03T05:23:25.022Z,26.80
2023-03-03T05:25:54.157Z,26.80
2023-03-03T05:28:21.466Z,26.80
2023-03-03T05:30:49.334Z,26.80
2023-03-03T05:33:24.061Z,26.80
2023-03-03T05:35:59.247Z,26.90
2023-03-03T05:38:25.766Z,26.90
2023-03-03T05:40:53.013Z,26.90
2023-03-03T05:43:24.997Z,26.90
2023-03-03T05:45:56.910Z,26.90
2023-03-03T05:48:24.072Z,26.80
2023-03-03T05:50:51.068Z,26.80
2023-03-03T05:53:17.957Z,26.80
2023-03-03T05:55:45.587Z,26.80
2023-03-03T05:58:12.581Z,26.70
2023-03-03T06:00:39.359Z,26.70
2023-03-03T06:03:06.277Z,26.50
2023-03-03T06:05:32.781Z,26.10
2023-03-03T06:07:59.552Z,26.00
2023-03-03T06:10:26.360Z,26.00
2023-03-03T06:12:53.208Z,26.00
2023-03-03T06:15:20.369Z,26.00
2023-03-03T06:17:46.889Z,26.00
2023-03-03T06:20:13.901Z,26.00
2023-03-03T06:22:41.235Z,26.10
2023-03-03T06:25:09.444Z,26.20
2023-03-03T06:27:36.519Z,26.10
2023-03-03T06:30:03.911Z,26.10
2023-03-03T06:32:30.666Z,26.10
2023-03-03T06:34:57.187Z,26.10
2023-03-03T06:37:24.327Z,26.20
2023-03-03T06:39:52.180Z,26.20
2023-03-03T06:42:19.427Z,26.20
2023-03-03T06:44:46.908Z,26.20
2023-03-03T06:47:13.357Z,26.10
2023-03-03T06:49:40.219Z,26.10
2023-03-03T06:52:18.586Z,26.10
2023-03-03T06:54:44.985Z,26.20
2023-03-03T06:57:25.935Z,26.20
2023-03-03T06:59:56.713Z,26.20
2023-03-03T07:02:24.623Z,26.10
2023-03-03T07:04:53.237Z,26.10
2023-03-03T07:07:25.037Z,26.00
2023-03-03T07:09:56.970Z,26.10
2023-03-03T07:12:32.686Z,26.10
2023-03-03T07:15:16.308Z,26.20
2023-03-03T07:17:51.258Z,26.30
2023-03-03T07:20:23.978Z,26.10
2023-03-03T07:22:52.559Z,26.10
2023-03-03T07:25:32.577Z,26.20
2023-03-03T07:28:13.829Z,26.10
2023-03-03T07:30:42.045Z,26.20
2023-03-03T07:33:20.259Z,26.20
2023-03-03T07:35:48.018Z,26.30
2023-03-03T07:38:24.896Z,26.20
2023-03-03T07:40:55.078Z,26.20
2023-03-03T07:43:34.036Z,26.20
2023-03-03T07:46:15.867Z,26.20
2023-03-03T07:48:44.583Z,26.20
2023-03-03T07:51:39.305Z,26.20
2023-03-03T07:54:28.141Z,26.30
2023-03-03T07:57:23.479Z,26.50
2023-03-03T07:59:53.512Z,26.60
2023-03-03T08:02:40.083Z,26.60
2023-03-03T08:05:37.734Z,26.50
2023-03-03T08:08:31.572Z,26.40
2023-03-03T08:11:03.159Z,26.40
2023-03-03T08:13:33.130Z,26.40
2023-03-03T08:16:26.036Z,26.40
2023-03-03T08:19:03.464Z,26.90
2023-03-03T08:21:31.845Z,26.50
2023-03-03T08:23:59.718Z,26.60
2023-03-03T08:26:27.844Z,26.60
2023-03-03T08:28:55.140Z,26.80
2023-03-03T08:31:38.299Z,26.90
2023-03-03T08:34:07.165Z,26.80
2023-03-03T08:36:34.852Z,26.70
2023-03-03T08:39:04.234Z,26.70
2023-03-03T08:41:31.581Z,26.60
2023-03-03T08:43:58.852Z,26.70
2023-03-03T08:46:26.683Z,27.20
2023-03-03T08:48:53.539Z,26.60
2023-03-03T08:51:20.992Z,26.50
2023-03-03T08:53:49.661Z,26.60
2023-03-03T08:56:18.996Z,26.40
2023-03-03T08:59:03.822Z,26.40
2023-03-03T09:01:34.378Z,26.30
2023-03-03T09:04:01.703Z,26.20
2023-03-03T09:06:30.289Z,26.10
2023-03-03T09:08:58.410Z,26.10
2023-03-03T09:11:28.055Z,26.10
2023-03-03T09:14:21.838Z,26.20
2023-03-03T09:16:52.188Z,26.20
2023-03-03T09:19:31.579Z,26.20
2023-03-03T09:22:24.712Z,26.20
2023-03-03T09:24:57.240Z,26.20
2023-03-03T09:27:34.762Z,26.10
2023-03-03T09:30:16.937Z,26.00
2023-03-03T09:32:43.737Z,26.10
2023-03-03T09:35:31.902Z,26.10
2023-03-03T09:37:58.529Z,26.10
2023-03-03T09:40:43.613Z,26.10
2023-03-03T09:43:24.266Z,26.10
2023-03-03T09:46:35.465Z,26.20
2023-03-03T09:49:49.654Z,26.10
2023-03-03T09:52:33.056Z,26.10
2023-03-03T09:55:06.926Z,26.00
2023-03-03T09:57:46.485Z,26.10
2023-03-03T10:00:31.243Z,26.50
2023-03-03T10:03:06.735Z,26.30
2023-03-03T10:06:12.492Z,26.30
2023-03-03T10:08:58.675Z,26.20
2023-03-03T10:11:46.622Z,26.30
2023-03-03T10:14:42.338Z,26.20
2023-03-03T10:17:27.395Z,26.30
2023-03-03T10:20:16.488Z,26.20
2023-03-03T10:22:57.385Z,26.20
2023-03-03T10:25:44.565Z,27.00
2023-03-03T10:28:49.304Z,26.60
2023-03-03T10:31:38.691Z,26.70
2023-03-03T10:34:46.605Z,26.50
2023-03-03T10:37:21.528Z,26.50
2023-03-03T10:39:58.193Z,26.50
2023-03-03T10:42:51.729Z,26.50
2023-03-03T10:45:43.262Z,26.50
2023-03-03T10:48:41.081Z,26.50
2023-03-03T10:51:22.530Z,26.40
2023-03-03T10:54:15.963Z,26.50
2023-03-03T10:56:53.250Z,26.40
2023-03-03T10:59:42.890Z,26.50
2023-03-03T11:02:49.851Z,26.50
2023-03-03T11:05:33.101Z,26.50
2023-03-03T11:08:23.355Z,26.50
2023-03-03T11:11:24.062Z,26.50
2023-03-03T11:14:08.453Z,26.50
2023-03-03T11:17:09.374Z,26.50
2023-03-03T11:19:45.412Z,26.50
2023-03-03T11:22:34.507Z,26.50
2023-03-03T11:25:16.174Z,26.50
2023-03-03T11:28:27.803Z,26.50
2023-03-03T11:31:17.081Z,26.50
2023-03-03T11:34:13.599Z,26.60
2023-03-03T11:36:56.442Z,26.50
2023-03-03T11:39:27.822Z,26.60
2023-03-03T11:42:29.321Z,26.50
2023-03-03T11:45:34.659Z,26.60
2023-03-03T11:48:42.733Z,26.50
2023-03-03T11:51:42.279Z,26.50
2023-03-03T11:54:29.381Z,26.50
2023-03-03T11:57:13.829Z,26.60
2023-03-03T12:00:00.457Z,26.60
2023-03-03T12:03:13.547Z,26.90
2023-03-03T12:06:09.388Z,26.90
2023-03-03T12:09:15.915Z,26.80
2023-03-03T12:12:15.000Z,26.70
2023-03-03T12:15:17.549Z,26.70
2023-03-03T12:17:53.881Z,26.70
2023-03-03T12:20:50.203Z,26.80
2023-03-03T12:23:39.895Z,26.70
2023-03-03T12:26:33.560Z,26.80
2023-03-03T12:29:12.703Z,26.80
2023-03-03T12:32:23.962Z,26.70
2023-03-03T12:35:31.834Z,26.60
2023-03-03T12:38:28.415Z,26.70
2023-03-03T12:41:11.364Z,26.70
2023-03-03T12:44:00.180Z,26.70
2023-03-03T12:47:08.272Z,26.70
2023-03-03T12:50:13.395Z,26.70
2023-03-03T12:52:50.675Z,26.70
2023-03-03T12:55:29.402Z,26.70
2023-03-03T12:58:01.053Z,26.70
2023-03-03T13:01:03.347Z,26.70
2023-03-03T13:03:57.753Z,26.70
2023-03-03T13:06:52.819Z,26.70
2023-03-03T13:09:27.203Z,26.70
2023-03-03T13:12:26.563Z,26.70
2023-03-03T13:15:20.082Z,26.70
2023-03-03T13:18:17.752Z,26.70
2023-03-03T13:21:11.890Z,26.70
2023-03-03T13:24:02.786Z,26.80
2023-03-03T13:26:44.429Z,26.80
2023-03-03T13:29:20.602Z,26.70
2023-03-03T13:32:14.871Z,26.70
2023-03-03T13:35:11.758Z,26.80
2023-03-03T13:37:49.249Z,26.80
2023-03-03T13:40:27.360Z,26.80
2023-03-03T13:43:06.042Z,26.80
2023-03-03T13:46:32.532Z,26.80
2023-03-03T13:49:17.721Z,26.80
2023-03-03T13:52:03.026Z,26.90
2023-03-03T13:54:59.077Z,26.90
2023-03-03T13:57:38.448Z,26.90
2023-03-03T14:00:16.869Z,26.90
2023-03-03T14:03:12.320Z,26.90
2023-03-03T14:05:58.337Z,26.90
2023-03-03T14:08:38.831Z,26.90
2023-03-03T14:11:27.871Z,26.90
2023-03-03T14:14:18.231Z,26.80
2023-03-03T14:16:58.106Z,26.80
2023-03-03T14:19:49.800Z,26.90
2023-03-03T14:22:31.193Z,26.80
2023-03-03T14:25:10.169Z,26.80
2023-03-03T14:27:49.204Z,26.90
2023-03-03T14:30:22.690Z,26.80
2023-03-03T14:33:03.627Z,26.80
2023-03-03T14:35:37.977Z,26.80
2023-03-03T14:38:19.239Z,26.80
2023-03-03T14:40:50.205Z,26.80
2023-03-03T14:43:31.509Z,26.90
2023-03-03T14:46:37.333Z,26.90
2023-03-03T14:49:18.432Z,27.00
2023-03-03T14:51:55.031Z,27.50
2023-03-03T14:54:30.414Z,26.90
2023-03-03T14:57:07.890Z,26.90
2023-03-03T14:59:43.938Z,26.90
2023-03-03T15:02:17.838Z,26.90
2023-03-03T15:04:49.692Z,26.90
2023-03-03T15:07:37.148Z,26.90
2023-03-03T15:10:08.808Z,26.90
2023-03-03T15:12:41.319Z,26.90
2023-03-03T15:15:24.234Z,26.90
2023-03-03T15:18:07.650Z,26.90
2023-03-03T15:21:09.928Z,26.90
2023-03-03T15:23:37.748Z,26.90
2023-03-03T15:26:11.468Z,27.00
2023-03-03T15:29:01.372Z,26.90
2023-03-03T15:31:42.006Z,26.90
2023-03-03T15:34:29.438Z,26.90
2023-03-03T15:37:32.929Z,26.90
2023-03-03T15:40:23.754Z,27.00
2023-03-03T15:43:13.225Z,27.00
2023-03-03T15:46:27.737Z,27.00
2023-03-03T15:49:24.924Z,27.10
2023-03-03T15:52:17.756Z,27.10
2023-03-03T15:55:12.427Z,27.10
2023-03-03T15:58:18.403Z,27.10
2023-03-03T16:01:02.146Z,27.10
2023-03-03T16:03:39.748Z,27.20
2023-03-03T16:06:20.153Z,27.20
2023-03-03T16:09:07.074Z,27.20
2023-03-03T16:11:53.318Z,27.30
2023-03-03T16:14:38.320Z,27.30
2023-03-03T16:17:27.343Z,27.30
2023-03-03T16:20:13.918Z,27.30
2023-03-03T16:22:48.472Z,27.20
2023-03-03T16:25:50.123Z,27.20
2023-03-03T16:28:39.706Z,27.30
2023-03-03T16:31:20.989Z,27.30
2023-03-03T16:34:19.873Z,27.30
2023-03-03T16:37:31.839Z,27.30
2023-03-03T16:40:10.937Z,27.30
2023-03-03T16:42:40.567Z,27.40
2023-03-03T16:45:26.502Z,27.30
2023-03-03T16:48:23.973Z,27.40
2023-03-03T16:50:55.566Z,27.40
2023-03-03T16:53:48.740Z,27.40
2023-03-03T16:56:26.523Z,27.40
2023-03-03T16:59:12.967Z,27.40
2023-03-03T17:02:01.212Z,27.40
2023-03-03T17:05:02.893Z,27.40
2023-03-03T17:07:57.821Z,27.40
2023-03-03T17:10:29.337Z,27.50
2023-03-03T17:13:38.776Z,27.40
2023-03-03T17:16:51.097Z,27.40
2023-03-03T17:19:52.447Z,27.40
2023-03-03T17:22:40.215Z,27.40
2023-03-03T17:25:07.181Z,27.40
2023-03-03T17:27:51.993Z,27.50
2023-03-03T17:30:27.817Z,27.40
2023-03-03T17:33:06.552Z,27.40
2023-03-03T17:35:43.060Z,27.40
2023-03-03T17:38:22.684Z,27.40
2023-03-03T17:41:21.391Z,27.40
2023-03-03T17:43:58.402Z,27.40
2023-03-03T17:46:57.830Z,27.40
2023-03-03T17:49:54.143Z,27.40
2023-03-03T17:52:56.355Z,27.40
2023-03-03T17:55:26.869Z,27.40
2023-03-03T17:58:16.540Z,27.40
2023-03-03T18:01:03.977Z,27.40
2023-03-03T18:03:33.739Z,27.30
2023-03-03T18:06:11.664Z,27.30
2023-03-03T18:09:14.439Z,27.30
2023-03-03T18:12:23.160Z,27.20
2023-03-03T18:15:03.390Z,27.20
2023-03-03T18:18:09.661Z,27.20
2023-03-03T18:21:13.561Z,27.20
2023-03-03T18:23:45.633Z,27.20
2023-03-03T18:26:39.895Z,27.20
2023-03-03T18:29:11.466Z,27.10
2023-03-03T18:31:52.956Z,27.10
2023-03-03T18:34:21.788Z,27.10
2023-03-03T18:36:53.725Z,27.10
2023-03-03T18:39:47.520Z,27.10
2023-03-03T18:42:18.196Z,27.10
2023-03-03T18:44:49.766Z,27.10
2023-03-03T18:47:21.424Z,27.10
2023-03-03T18:50:20.322Z,27.10
2023-03-03T18:53:09.304Z,27.00
2023-03-03T18:55:50.626Z,27.00
2023-03-03T18:58:17.752Z,27.10
2023-03-03T19:00:54.682Z,27.00
2023-03-03T19:03:54.560Z,27.00
2023-03-03T19:06:38.533Z,27.00
2023-03-03T19:09:09.229Z,27.00
2023-03-03T19:11:42.454Z,27.00
2023-03-03T19:14:31.317Z,27.00
2023-03-03T19:17:24.462Z,27.00
2023-03-03T19:20:15.138Z,27.00
2023-03-03T19:23:07.576Z,27.00
2023-03-03T19:25:34.260Z,27.00
2023-03-03T19:28:09.468Z,27.00
2023-03-03T19:30:56.457Z,27.00
2023-03-03T19:34:01.690Z,26.90
2023-03-03T19:36:59.980Z,27.00
2023-03-03T19:40:08.483Z,27.00
2023-03-03T19:43:02.034Z,27.00
2023-03-03T19:45:38.736Z,27.00
2023-03-03T19:48:33.159Z,27.00
2023-03-03T19:51:08.860Z,27.00
2023-03-03T19:54:02.203Z,27.00
2023-03-03T19:56:48.618Z,27.00
2023-03-03T19:59:48.629Z,26.90
2023-03-03T20:02:38.412Z,26.90
2023-03-03T20:05:39.840Z,27.00
2023-03-03T20:08:15.874Z,26.90
2023-03-03T20:11:13.385Z,26.90
2023-03-03T20:14:14.222Z,27.00
2023-03-03T20:16:42.833Z,27.00
2023-03-03T20:19:29.521Z,27.00
2023-03-03T20:22:05.200Z,27.00
2023-03-03T20:25:02.037Z,27.00
2023-03-03T20:27:47.505Z,26.90
2023-03-03T20:30:40.786Z,27.00
2023-03-03T20:33:34.300Z,26.90
2023-03-03T20:36:36.809Z,27.00
2023-03-03T20:39:11.263Z,27.00
2023-03-03T20:42:17.840Z,26.90
2023-03-03T20:45:27.242Z,26.90
2023-03-03T20:48:13.320Z,26.90
2023-03-03T20:50:53.516Z,26.90
2023-03-03T20:53:40.312Z,26.90
2023-03-03T20:56:27.041Z,26.90
2023-03-03T20:59:13.368Z,26.80
2023-03-03T21:02:07.566Z,26.80
2023-03-03T21:04:35.587Z,26.80
2023-03-03T21:07:09.205Z,26.80
2023-03-03T21:09:42.060Z,26.80
2023-03-03T21:12:30.794Z,26.80
2023-03-03T21:15:08.392Z,26.80
2023-03-03T21:17:38.014Z,26.80
2023-03-03T21:20:31.061Z,26.80
2023-03-03T21:23:13.134Z,26.70
2023-03-03T21:26:06.537Z,26.70
2023-03-03T21:28:39.213Z,26.70
2023-03-03T21:31:25.456Z,26.70
2023-03-03T21:34:20.154Z,26.70
2023-03-03T21:37:00.181Z,26.70
2023-03-03T21:39:37.835Z,26.70
2023-03-03T21:42:25.200Z,26.70
2023-03-03T21:45:12.951Z,26.70
2023-03-03T21:47:43.333Z,26.70
2023-03-03T21:50:16.524Z,26.70
2023-03-03T21:52:48.626Z,26.70
2023-03-03T21:55:18.480Z,26.70
2023-03-03T21:57:47.449Z,26.70
2023-03-03T22:00:28.325Z,26.70
2023-03-03T22:02:56.899Z,26.70
2023-03-03T22:05:31.240Z,26.70
2023-03-03T22:08:19.954Z,26.70
2023-03-03T22:10:55.926Z,26.70
2023-03-03T22:13:32.301Z,26.70
2023-03-03T22:15:59.651Z,26.70
2023-03-03T22:18:31.964Z,26.70
2023-03-03T22:21:11.765Z,26.70
2023-03-03T22:23:46.770Z,26.70
2023-03-03T22:26:37.136Z,26.70
2023-03-03T22:29:31.488Z,26.70
2023-03-03T22:32:02.688Z,26.70
2023-03-03T22:34:38.439Z,26.70
2023-03-03T22:37:17.849Z,26.70
2023-03-03T22:39:50.107Z,26.70
2023-03-03T22:42:23.870Z,26.70
2023-03-03T22:45:08.806Z,26.70
2023-03-03T22:47:38.634Z,26.70
2023-03-03T22:50:13.955Z,26.70
2023-03-03T22:52:50.249Z,26.70
2023-03-03T22:55:24.514Z,26.70
2023-03-03T22:58:05.695Z,26.70
2023-03-03T23:00:45.596Z,26.70
2023-03-03T23:03:14.825Z,26.70
2023-03-03T23:05:46.102Z,26.70
2023-03-03T23:08:26.180Z,26.70
2023-03-03T23:11:03.793Z,26.70
2023-03-03T23:13:35.285Z,26.80
2023-03-03T23:16:07.567Z,26.80
2023-03-03T23:18:38.687Z,26.80
2023-03-03T23:21:12.994Z,26.90
2023-03-03T23:23:39.882Z,26.90
2023-03-03T23:26:10.581Z,26.90
2023-03-03T23:28:46.852Z,26.80
2023-03-03T23:31:16.456Z,26.90
2023-03-03T23:33:44.960Z,26.90
2023-03-03T23:36:27.024Z,26.90
2023-03-03T23:38:58.634Z,26.90
2023-03-03T23:41:27.122Z,26.90
2023-03-03T23:43:55.818Z,26.90
2023-03-03T23:46:26.306Z,26.90
2023-03-03T23:48:57.747Z,26.90
2023-03-03T23:51:26.866Z,26.90
2023-03-03T23:54:00.434Z,27.00
2023-03-03T23:56:30.932Z,26.90
2023-03-03T23:59:00.530Z,27.00
